Time;durP1;ratioP1;P1;durP2;ratioP2;P2;SDS_P1;SDS_P2;PMS_P1;PMS_P2;Temp;Humidity;BMP_temperature;BMP_pressure;BME280_temperature;BME280_humidity;BME280_pressure;Samples;Min_cycle;Max_cycle;Signal;HPM_P1;HPM_P2
2023/02/04 00:01:45;;;;;;;2.53;1.70;;;4.70;99.90;;;;;;5032258;28;21547;-85
2023/02/04 00:04:12;;;;;;;2.33;1.73;;;4.70;99.90;;;;;;5031436;28;20378;-85
2023/02/04 00:06:41;;;;;;;3.03;1.90;;;4.70;99.90;;;;;;5033855;28;20354;-84
2023/02/04 00:09:07;;;;;;;2.83;1.80;;;4.70;99.90;;;;;;5037618;28;20157;-85
2023/02/04 00:11:33;;;;;;;3.40;2.00;;;4.60;99.90;;;;;;5042421;28;20063;-85
2023/02/04 00:13:58;;;;;;;2.23;1.80;;;4.70;99.90;;;;;;5041452;28;20456;-84
2023/02/04 00:16:24;;;;;;;2.73;2.00;;;4.60;99.90;;;;;;5039781;28;20170;-85
2023/02/04 00:18:50;;;;;;;3.60;1.90;;;4.60;99.90;;;;;;5040152;28;20060;-84
2023/02/04 00:21:15;;;;;;;4.43;1.93;;;4.70;99.90;;;;;;5039148;28;20040;-84
2023/02/04 00:23:41;;;;;;;2.10;1.80;;;4.60;99.90;;;;;;5052519;28;20036;-84
2023/02/04 00:26:06;;;;;;;1.87;1.60;;;4.70;99.90;;;;;;5037157;28;20428;-85
2023/02/04 00:28:32;;;;;;;2.63;2.17;;;4.70;99.90;;;;;;5036374;28;20033;-84
2023/02/04 00:30:58;;;;;;;3.07;2.00;;;4.70;99.90;;;;;;5036475;28;20025;-84
2023/02/04 00:33:25;;;;;;;2.40;2.00;;;4.80;99.90;;;;;;5032899;28;20068;-84
2023/02/04 00:35:51;;;;;;;2.10;1.60;;;4.80;99.90;;;;;;5033902;28;20538;-84
2023/02/04 00:38:17;;;;;;;3.57;1.90;;;4.80;99.90;;;;;;5034194;28;20021;-84
2023/02/04 00:40:42;;;;;;;2.30;1.87;;;4.80;99.90;;;;;;5037407;28;20040;-84
2023/02/04 00:43:08;;;;;;;5.43;2.37;;;4.70;99.90;;;;;;5035042;28;20116;-84
2023/02/04 00:45:33;;;;;;;3.07;1.90;;;4.70;99.90;;;;;;5034613;28;20097;-84
2023/02/04 00:47:59;;;;;;;4.17;2.20;;;4.70;99.90;;;;;;5032471;28;20033;-85
2023/02/04 00:50:24;;;;;;;2.67;2.20;;;4.60;99.90;;;;;;5032268;28;20041;-84
2023/02/04 00:52:51;;;;;;;3.70;1.93;;;4.60;99.90;;;;;;5033912;28;20034;-84
2023/02/04 00:55:17;;;;;;;2.60;2.20;;;4.60;99.90;;;;;;5032094;28;20018;-84
2023/02/04 00:57:47;;;;;;;3.03;2.33;;;4.60;99.90;;;;;;5032400;28;21368;-84
2023/02/04 01:00:16;;;;;;;2.90;2.20;;;4.60;99.90;;;;;;5030639;28;20017;-84
2023/02/04 01:02:42;;;;;;;2.77;2.00;;;4.60;99.90;;;;;;5034825;28;20727;-84
2023/02/04 01:05:08;;;;;;;2.93;2.23;;;4.60;99.90;;;;;;5033398;28;20069;-85
2023/02/04 01:07:33;;;;;;;4.03;2.60;;;4.60;99.90;;;;;;5031579;28;20116;-85
2023/02/04 01:09:59;;;;;;;3.80;2.40;;;4.60;99.90;;;;;;5033536;28;20040;-85
2023/02/04 01:12:26;;;;;;;4.70;2.60;;;4.50;99.90;;;;;;5032212;28;20050;-85
2023/02/04 01:14:52;;;;;;;2.40;2.07;;;4.50;99.90;;;;;;5033040;28;20029;-85
2023/02/04 01:17:18;;;;;;;2.43;2.00;;;4.60;99.90;;;;;;5033228;28;20032;-85
2023/02/04 01:19:44;;;;;;;2.87;1.90;;;4.60;99.90;;;;;;5031946;28;20812;-84
2023/02/04 01:22:10;;;;;;;3.27;2.17;;;4.60;99.90;;;;;;5028223;28;20021;-85
2023/02/04 01:24:35;;;;;;;3.40;1.90;;;4.50;99.90;;;;;;5031717;28;20124;-85
2023/02/04 01:27:01;;;;;;;5.30;2.00;;;4.50;99.90;;;;;;5030633;28;21351;-84
2023/02/04 01:29:26;;;;;;;2.30;1.70;;;4.50;99.90;;;;;;5032723;28;20490;-84
2023/02/04 01:31:52;;;;;;;2.47;1.43;;;4.50;99.90;;;;;;5034646;28;20044;-85
2023/02/04 01:34:17;;;;;;;1.83;1.20;;;4.50;99.90;;;;;;5032117;28;20044;-84
2023/02/04 01:36:43;;;;;;;2.17;1.30;;;4.50;99.90;;;;;;5031958;28;20064;-84
2023/02/04 01:39:08;;;;;;;4.53;1.30;;;4.50;99.90;;;;;;5032338;28;20063;-84
2023/02/04 01:41:34;;;;;;;5.53;1.50;;;4.50;99.90;;;;;;5033003;28;20363;-84
2023/02/04 01:44:00;;;;;;;3.07;1.67;;;4.40;99.90;;;;;;5030750;28;20275;-84
2023/02/04 01:46:25;;;;;;;1.43;1.13;;;4.40;99.90;;;;;;5031702;28;20034;-84
2023/02/04 01:48:51;;;;;;;3.70;1.67;;;4.40;99.90;;;;;;5032238;28;20094;-84
2023/02/04 01:51:25;;;;;;;3.60;1.40;;;4.50;99.90;;;;;;5032305;28;20022;-84
2023/02/04 01:53:51;;;;;;;4.47;1.38;;;4.50;99.90;;;;;;5031208;28;20963;-84
2023/02/04 01:56:19;;;;;;;2.70;1.53;;;4.60;99.90;;;;;;5033028;28;20078;-84
2023/02/04 01:58:46;;;;;;;4.20;1.87;;;4.60;99.90;;;;;;5031170;28;20025;-84
2023/02/04 02:01:14;;;;;;;5.87;2.03;;;4.60;99.90;;;;;;5031939;28;20049;-84
2023/02/04 02:03:40;;;;;;;5.23;2.07;;;4.60;99.90;;;;;;5031729;28;20112;-84
2023/02/04 02:06:08;;;;;;;8.53;2.40;;;4.70;99.90;;;;;;5030707;28;20044;-84
2023/02/04 02:08:39;;;;;;;8.73;2.80;;;4.70;99.90;;;;;;5029255;28;20036;-84
2023/02/04 02:11:05;;;;;;;11.07;2.70;;;4.70;99.90;;;;;;5030315;28;20990;-84
2023/02/04 02:13:30;;;;;;;7.70;2.63;;;4.70;99.90;;;;;;5028259;28;20025;-84
2023/02/04 02:15:56;;;;;;;4.33;2.63;;;4.70;99.90;;;;;;5025886;28;20026;-84
2023/02/04 02:18:24;;;;;;;8.73;3.13;;;4.70;99.90;;;;;;5026595;28;20033;-84
2023/02/04 02:20:49;;;;;;;8.67;3.03;;;4.70;99.90;;;;;;5029407;28;20032;-84
2023/02/04 02:23:45;;;;;;;9.50;3.63;;;4.70;99.90;;;;;;5031903;28;20028;-84
2023/02/04 02:26:12;;;;;;;6.95;3.03;;;4.70;99.90;;;;;;5032219;28;20133;-84
2023/02/04 02:28:37;;;;;;;10.40;3.00;;;4.70;99.90;;;;;;5031069;28;20032;-84
2023/02/04 02:31:03;;;;;;;9.73;3.43;;;4.70;99.90;;;;;;5028140;28;20021;-83
2023/02/04 02:33:29;;;;;;;12.37;3.47;;;4.70;99.90;;;;;;5027382;28;20493;-84
2023/02/04 02:35:54;;;;;;;13.93;3.40;;;4.70;99.90;;;;;;5027304;28;20610;-84
2023/02/04 02:38:20;;;;;;;12.83;3.67;;;4.80;99.90;;;;;;5026059;28;20999;-84
2023/02/04 02:40:47;;;;;;;12.53;3.77;;;4.80;99.90;;;;;;5025727;28;20118;-84
2023/02/04 02:43:16;;;;;;;9.33;3.87;;;4.80;99.90;;;;;;5026568;28;20033;-84
2023/02/04 02:45:42;;;;;;;11.57;3.07;;;4.80;99.90;;;;;;5025244;28;20068;-84
2023/02/04 02:48:09;;;;;;;13.90;3.80;;;4.80;99.90;;;;;;5024949;28;20029;-84
2023/02/04 02:50:38;;;;;;;13.70;4.33;;;4.80;99.90;;;;;;5027638;28;20041;-83
2023/02/04 02:53:11;;;;;;;13.33;3.97;;;4.80;99.90;;;;;;5026802;28;20053;-83
2023/02/04 02:55:39;;;;;;;16.23;3.60;;;4.80;99.90;;;;;;5027412;28;20013;-83
2023/02/04 02:58:31;;;;;;;17.23;3.53;;;4.70;99.90;;;;;;5027782;28;20536;-83
2023/02/04 03:00:58;;;;;;;22.20;4.73;;;4.60;99.90;;;;;;5030992;28;20068;-83
2023/02/04 03:03:27;;;;;;;10.73;3.00;;;4.60;99.90;;;;;;5034636;28;20053;-83
2023/02/04 03:06:03;;;;;;;19.20;4.03;;;4.60;99.90;;;;;;5031839;28;20498;-83
2023/02/04 03:08:31;;;;;;;15.27;3.50;;;4.50;99.90;;;;;;5025401;28;20063;-83
2023/02/04 03:10:57;;;;;;;17.90;3.70;;;4.50;99.90;;;;;;5022103;28;20126;-83
2023/02/04 03:13:22;;;;;;;26.27;5.43;;;4.50;99.90;;;;;;5026595;28;20055;-83
2023/02/04 03:15:49;;;;;;;13.37;3.60;;;4.40;99.90;;;;;;5026436;28;20017;-83
2023/02/04 03:18:17;;;;;;;16.63;3.67;;;4.40;99.90;;;;;;5026600;28;20425;-83
2023/02/04 03:20:43;;;;;;;16.47;3.60;;;4.40;99.90;;;;;;5026707;28;20052;-83
2023/02/04 03:23:09;;;;;;;16.20;3.20;;;4.30;99.90;;;;;;5032840;28;20037;-83
2023/02/04 03:25:38;;;;;;;13.13;3.70;;;4.30;99.90;;;;;;5029730;28;20036;-83
2023/02/04 03:28:06;;;;;;;20.67;4.03;;;4.30;99.90;;;;;;5027567;28;20055;-83
2023/02/04 03:30:32;;;;;;;18.17;3.80;;;4.30;99.90;;;;;;5026424;28;20028;-83
2023/02/04 03:32:57;;;;;;;19.37;3.93;;;4.30;99.90;;;;;;5026953;28;20129;-83
2023/02/04 03:35:23;;;;;;;25.27;3.80;;;4.20;99.90;;;;;;5026186;28;20025;-83
2023/02/04 03:37:49;;;;;;;16.33;4.07;;;4.20;99.90;;;;;;5026235;28;20461;-83
2023/02/04 03:40:15;;;;;;;15.07;3.53;;;4.20;99.90;;;;;;5026538;28;20691;-83
2023/02/04 03:42:40;;;;;;;23.50;4.30;;;4.10;99.90;;;;;;5024977;28;20028;-83
2023/02/04 03:45:06;;;;;;;15.83;4.00;;;4.10;99.90;;;;;;5027209;28;20052;-83
2023/02/04 03:47:32;;;;;;;12.63;3.47;;;4.00;99.90;;;;;;5024853;28;20029;-83
2023/02/04 03:49:57;;;;;;;15.07;3.57;;;4.10;99.90;;;;;;5026901;28;20021;-83
2023/02/04 03:52:23;;;;;;;14.07;3.47;;;4.00;99.90;;;;;;5026581;28;20029;-83
2023/02/04 03:54:49;;;;;;;15.87;4.63;;;4.00;99.90;;;;;;5026033;28;20041;-83
2023/02/04 03:57:17;;;;;;;18.47;4.27;;;3.90;99.90;;;;;;5024994;28;20044;-83
2023/02/04 03:59:42;;;;;;;19.27;4.20;;;3.90;99.90;;;;;;5025899;28;20036;-83
2023/02/04 04:02:08;;;;;;;17.47;3.93;;;3.80;99.90;;;;;;5038182;28;20036;-78
2023/02/04 04:04:34;;;;;;;10.57;3.43;;;3.80;99.90;;;;;;5037769;28;20036;-78
2023/02/04 04:07:00;;;;;;;15.27;3.90;;;3.80;99.90;;;;;;5038022;28;20033;-78
2023/02/04 04:09:25;;;;;;;14.03;3.90;;;3.80;99.90;;;;;;5039484;28;20054;-78
2023/02/04 04:11:51;;;;;;;14.97;3.50;;;3.80;99.90;;;;;;5036552;28;20024;-78
2023/02/04 04:14:16;;;;;;;12.47;2.97;;;3.80;99.90;;;;;;5038592;28;20030;-77
2023/02/04 04:16:42;;;;;;;16.67;3.60;;;3.90;99.90;;;;;;5039648;28;20021;-77
2023/02/04 04:19:07;;;;;;;18.30;3.97;;;3.80;99.90;;;;;;5037719;28;20116;-77
2023/02/04 04:21:33;;;;;;;13.73;3.13;;;3.80;99.90;;;;;;5037379;28;20030;-78
2023/02/04 04:23:59;;;;;;;14.30;3.20;;;3.80;99.90;;;;;;5040379;28;20104;-78
2023/02/04 04:26:25;;;;;;;12.07;2.90;;;3.80;99.90;;;;;;5039553;28;20099;-78
2023/02/04 04:28:50;;;;;;;21.33;4.00;;;3.70;99.90;;;;;;5039518;28;20037;-78
2023/02/04 04:31:16;;;;;;;15.07;2.90;;;3.70;99.90;;;;;;5041071;28;20033;-78
2023/02/04 04:33:41;;;;;;;15.50;3.17;;;3.70;99.90;;;;;;5038542;28;20025;-78
2023/02/04 04:36:09;;;;;;;15.27;3.10;;;3.60;99.90;;;;;;5040834;28;20023;-78
2023/02/04 04:38:35;;;;;;;10.43;3.23;;;3.50;99.90;;;;;;5038377;28;20033;-78
2023/02/04 04:41:00;;;;;;;21.67;3.87;;;3.50;99.90;;;;;;5039005;28;20025;-78
2023/02/04 04:43:33;;;;;;;14.57;3.10;;;3.50;99.90;;;;;;5039408;28;20029;-78
2023/02/04 04:45:59;;;;;;;13.47;3.00;;;3.50;99.90;;;;;;5040330;28;20096;-78
2023/02/04 04:48:24;;;;;;;16.67;3.53;;;3.40;99.90;;;;;;5041089;28;20133;-78
2023/02/04 04:50:50;;;;;;;17.27;3.20;;;3.40;99.90;;;;;;5039139;28;20488;-78
2023/02/04 04:53:15;;;;;;;18.70;3.60;;;3.40;99.90;;;;;;5039371;28;20119;-78
2023/02/04 04:55:41;;;;;;;15.00;2.97;;;3.30;99.90;;;;;;5038180;28;20021;-78
2023/02/04 04:58:07;;;;;;;14.83;4.10;;;3.30;99.90;;;;;;5040671;28;20386;-77
2023/02/04 05:00:33;;;;;;;11.60;3.30;;;3.20;99.90;;;;;;5044203;28;20319;-78
2023/02/04 05:02:59;;;;;;;14.17;3.43;;;3.20;99.90;;;;;;5040721;28;20026;-78
2023/02/04 05:05:25;;;;;;;15.83;3.53;;;3.20;99.90;;;;;;5044883;28;20029;-77
2023/02/04 05:07:52;;;;;;;13.10;3.50;;;3.10;99.90;;;;;;5041613;28;20107;-78
2023/02/04 05:10:18;;;;;;;11.53;3.30;;;3.10;99.90;;;;;;5042325;28;20037;-78
2023/02/04 05:12:43;;;;;;;23.30;3.37;;;3.20;99.90;;;;;;5042499;28;20107;-78
2023/02/04 05:15:09;;;;;;;14.30;3.67;;;3.20;99.90;;;;;;5042590;28;20096;-78
2023/02/04 05:17:35;;;;;;;13.63;3.33;;;3.20;99.90;;;;;;5041925;28;20026;-78
2023/02/04 05:20:00;;;;;;;16.40;3.50;;;3.20;99.90;;;;;;5038739;28;20551;-78
2023/02/04 05:22:26;;;;;;;18.87;3.57;;;3.20;99.90;;;;;;5045304;28;20099;-79
2023/02/04 05:24:51;;;;;;;15.93;3.30;;;3.20;99.90;;;;;;5048360;28;20024;-78
2023/02/04 05:27:17;;;;;;;19.10;4.40;;;3.20;99.90;;;;;;5044086;28;20021;-78
2023/02/04 05:29:43;;;;;;;17.00;3.70;;;3.30;99.90;;;;;;5045772;28;20067;-78
2023/02/04 05:32:08;;;;;;;19.37;3.40;;;3.30;99.90;;;;;;5045339;28;20514;-78
2023/02/04 05:34:34;;;;;;;22.33;3.87;;;3.30;99.90;;;;;;5040375;28;20026;-79
2023/02/04 05:36:59;;;;;;;12.80;3.57;;;3.30;99.90;;;;;;5045111;28;20566;-78
2023/02/04 05:39:25;;;;;;;14.37;3.60;;;3.30;99.90;;;;;;5042612;28;20418;-79
2023/02/04 05:41:50;;;;;;;16.57;3.40;;;3.30;99.90;;;;;;5042606;28;20405;-79
2023/02/04 05:44:16;;;;;;;16.30;3.93;;;3.30;99.90;;;;;;5043400;28;20522;-78
2023/02/04 05:46:41;;;;;;;16.87;3.90;;;3.30;99.90;;;;;;5042736;28;20017;-78
2023/02/04 05:49:07;;;;;;;21.03;4.63;;;3.30;99.90;;;;;;5045592;28;20078;-78
2023/02/04 05:51:32;;;;;;;19.13;4.33;;;3.30;99.90;;;;;;5042742;28;20029;-78
2023/02/04 05:53:58;;;;;;;21.67;4.27;;;3.30;99.90;;;;;;5043364;28;20029;-79
2023/02/04 05:56:26;;;;;;;16.70;3.73;;;3.30;99.90;;;;;;5038908;28;20021;-79
2023/02/04 05:58:52;;;;;;;20.23;4.03;;;3.30;99.90;;;;;;5038698;28;20034;-79
2023/02/04 06:01:17;;;;;;;13.90;3.90;;;3.30;99.90;;;;;;5040367;28;20025;-79
2023/02/04 06:03:43;;;;;;;17.70;4.10;;;3.30;99.90;;;;;;5041011;28;20037;-79
2023/02/04 06:06:09;;;;;;;18.37;4.40;;;3.30;99.90;;;;;;5041277;28;20053;-79
2023/02/04 06:08:34;;;;;;;27.50;5.27;;;3.30;99.90;;;;;;5038690;28;20071;-79
2023/02/04 06:11:00;;;;;;;18.77;3.77;;;3.30;99.90;;;;;;5037076;28;20029;-79
2023/02/04 06:13:25;;;;;;;15.83;4.13;;;3.30;99.90;;;;;;5038177;28;20075;-79
2023/02/04 06:15:51;;;;;;;22.10;4.20;;;3.30;99.90;;;;;;5040964;28;20021;-79
2023/02/04 06:18:17;;;;;;;21.73;4.37;;;3.30;99.90;;;;;;5037313;28;20040;-79
2023/02/04 06:20:42;;;;;;;17.63;3.80;;;3.20;99.90;;;;;;5042323;28;20026;-79
2023/02/04 06:23:08;;;;;;;20.93;4.17;;;3.20;99.90;;;;;;5038450;28;20399;-79
2023/02/04 06:25:34;;;;;;;19.27;4.40;;;3.30;99.90;;;;;;5038441;28;20021;-79
2023/02/04 06:27:59;;;;;;;19.87;3.83;;;3.20;99.90;;;;;;5041245;28;20025;-79
2023/02/04 06:30:25;;;;;;;21.93;5.10;;;3.30;99.90;;;;;;5040599;28;20024;-84
2023/02/04 06:32:51;;;;;;;15.27;3.90;;;3.20;99.90;;;;;;5037962;28;20128;-79
2023/02/04 06:35:17;;;;;;;17.97;4.37;;;3.20;99.90;;;;;;5038498;28;20167;-79
2023/02/04 06:37:43;;;;;;;12.43;3.60;;;3.30;99.90;;;;;;5040161;28;21437;-79
2023/02/04 06:40:09;;;;;;;12.70;3.60;;;3.20;99.90;;;;;;5039263;28;20029;-79
2023/02/04 06:42:35;;;;;;;15.77;3.57;;;3.20;99.90;;;;;;5038835;28;20455;-79
2023/02/04 06:45:01;;;;;;;19.37;4.23;;;3.20;99.90;;;;;;5043126;28;20037;-79
2023/02/04 06:47:26;;;;;;;23.60;3.87;;;3.20;99.90;;;;;;5039585;28;20112;-79
2023/02/04 06:49:52;;;;;;;20.17;3.73;;;3.20;99.90;;;;;;5039752;28;20022;-86
2023/02/04 06:52:17;;;;;;;14.57;3.10;;;3.20;99.90;;;;;;5039207;28;20025;-86
2023/02/04 06:54:43;;;;;;;16.33;4.50;;;3.10;99.90;;;;;;5036506;28;20031;-86
2023/02/04 06:57:08;;;;;;;10.80;3.93;;;3.10;99.90;;;;;;5036683;28;20024;-86
2023/02/04 06:59:41;;;;;;;16.17;3.50;;;3.20;99.90;;;;;;5036030;28;20037;-86
2023/02/04 07:02:15;;;;;;;13.83;4.33;;;3.20;99.90;;;;;;5033647;28;20123;-86
2023/02/04 07:04:42;;;;;;;17.37;3.97;;;3.20;99.90;;;;;;5034147;28;20033;-86
2023/02/04 07:07:11;;;;;;;13.53;3.70;;;3.20;99.90;;;;;;5033778;28;20036;-86
2023/02/04 07:09:39;;;;;;;19.37;3.97;;;3.20;99.90;;;;;;5036151;28;20081;-86
2023/02/04 07:12:05;;;;;;;15.07;4.50;;;3.10;99.90;;;;;;5034607;28;20036;-86
2023/02/04 07:14:30;;;;;;;15.93;3.80;;;3.20;99.90;;;;;;5034744;28;20096;-86
2023/02/04 07:16:57;;;;;;;13.50;3.67;;;3.20;99.90;;;;;;5034814;28;20024;-86
2023/02/04 07:19:23;;;;;;;15.60;2.93;;;3.20;99.90;;;;;;5034830;28;20075;-83
2023/02/04 07:21:52;;;;;;;14.00;4.00;;;3.20;99.90;;;;;;5031402;28;20026;-86
2023/02/04 07:24:18;;;;;;;17.00;4.10;;;3.20;99.90;;;;;;5036187;28;20052;-86
2023/02/04 07:26:44;;;;;;;17.30;4.30;;;3.20;99.90;;;;;;5035028;28;20478;-88
2023/02/04 07:29:09;;;;;;;14.87;3.10;;;3.30;99.90;;;;;;5033953;28;20017;-85
2023/02/04 07:31:37;;;;;;;12.07;3.37;;;3.30;99.90;;;;;;5039693;28;20017;-82
2023/02/04 07:34:03;;;;;;;16.63;3.47;;;3.30;99.90;;;;;;5040598;28;20037;-80
2023/02/04 07:36:28;;;;;;;10.60;3.30;;;3.30;99.90;;;;;;5034746;28;20017;-80
2023/02/04 07:38:54;;;;;;;10.80;2.73;;;3.30;99.90;;;;;;5044323;28;20036;-82
2023/02/04 07:41:20;;;;;;;11.77;3.07;;;3.40;99.90;;;;;;5051891;28;20032;-82
2023/02/04 07:43:45;;;;;;;12.63;3.33;;;3.40;99.90;;;;;;5064180;28;20043;-82
2023/02/04 07:46:11;;;;;;;19.07;3.83;;;3.50;99.90;;;;;;5050344;28;20033;-78
2023/02/04 07:48:36;;;;;;;13.77;3.63;;;3.50;99.90;;;;;;5049458;28;20037;-81
2023/02/04 07:51:02;;;;;;;16.63;3.60;;;3.50;99.90;;;;;;5033631;28;20025;-85
2023/02/04 07:53:28;;;;;;;15.50;3.70;;;3.60;99.90;;;;;;5028545;28;20029;-85
2023/02/04 07:55:53;;;;;;;16.10;3.57;;;3.60;99.90;;;;;;5029451;28;20033;-85
2023/02/04 07:58:21;;;;;;;13.07;2.80;;;3.60;99.90;;;;;;5031998;28;20501;-84
2023/02/04 08:00:47;;;;;;;15.07;3.10;;;3.60;99.90;;;;;;5041361;28;20072;-84
2023/02/04 08:03:12;;;;;;;13.43;3.30;;;3.60;99.90;;;;;;5048599;28;20045;-84
2023/02/04 08:05:38;;;;;;;11.70;3.20;;;3.60;99.90;;;;;;5051363;28;20032;-84
2023/02/04 08:08:03;;;;;;;14.50;3.60;;;3.70;99.90;;;;;;5052522;28;20021;-84
2023/02/04 08:10:29;;;;;;;14.93;3.07;;;3.70;99.90;;;;;;5033033;28;20061;-85
2023/02/04 08:12:55;;;;;;;14.63;3.83;;;3.70;99.90;;;;;;5034579;28;20041;-85
2023/02/04 08:15:20;;;;;;;16.33;4.67;;;3.70;99.90;;;;;;5024840;28;20021;-78
2023/02/04 08:17:46;;;;;;;20.97;4.00;;;3.80;99.90;;;;;;5037483;28;20024;-78
2023/02/04 08:20:15;;;;;;;12.57;3.17;;;3.80;99.90;;;;;;5036259;28;20121;-78
2023/02/04 08:22:41;;;;;;;14.10;4.23;;;3.90;99.90;;;;;;5035286;28;20044;-78
2023/02/04 08:25:10;;;;;;;16.60;4.47;;;3.90;99.90;;;;;;5037867;28;20030;-78
2023/02/04 08:27:35;;;;;;;16.40;3.93;;;3.90;99.90;;;;;;5037343;28;20091;-78
2023/02/04 08:30:01;;;;;;;16.27;4.00;;;3.90;99.90;;;;;;5035864;28;20025;-78
2023/02/04 08:32:28;;;;;;;14.13;3.93;;;3.90;99.90;;;;;;5040658;28;20028;-78
2023/02/04 08:34:53;;;;;;;18.90;4.10;;;4.00;99.90;;;;;;5041388;28;20059;-78
2023/02/04 08:37:19;;;;;;;18.40;3.63;;;4.00;99.90;;;;;;5039012;28;20025;-78
2023/02/04 08:39:46;;;;;;;14.13;3.60;;;4.00;99.90;;;;;;5037498;28;20056;-78
2023/02/04 08:42:12;;;;;;;12.57;3.40;;;4.10;99.90;;;;;;5040837;28;20032;-78
2023/02/04 08:44:37;;;;;;;20.40;3.67;;;4.20;99.90;;;;;;5041966;28;20025;-78
2023/02/04 08:47:03;;;;;;;20.53;3.80;;;4.40;99.90;;;;;;5039490;28;20377;-78
2023/02/04 08:49:28;;;;;;;16.57;3.70;;;4.50;99.90;;;;;;5039655;28;20128;-78
2023/02/04 08:51:54;;;;;;;11.30;3.60;;;4.60;99.90;;;;;;5037781;28;20014;-78
2023/02/04 08:54:19;;;;;;;17.47;3.53;;;4.60;99.90;;;;;;5038394;28;20053;-78
2023/02/04 08:56:45;;;;;;;17.77;3.17;;;4.60;99.90;;;;;;5039457;28;20346;-78
2023/02/04 08:59:10;;;;;;;18.20;3.60;;;4.60;99.90;;;;;;5040466;28;20021;-78
2023/02/04 09:01:36;;;;;;;21.03;3.10;;;4.60;99.90;;;;;;5043341;28;20032;-78
2023/02/04 09:04:02;;;;;;;17.37;3.43;;;4.60;99.90;;;;;;5038709;28;20351;-78
2023/02/04 09:06:30;;;;;;;18.70;3.17;;;4.50;99.90;;;;;;5039417;28;20060;-78
2023/02/04 09:08:56;;;;;;;18.13;4.50;;;4.50;99.90;;;;;;5040526;28;20379;-78
2023/02/04 09:11:21;;;;;;;11.37;2.87;;;4.40;99.90;;;;;;5039618;28;20022;-78
2023/02/04 09:13:47;;;;;;;16.43;4.97;;;4.40;99.90;;;;;;5041786;28;20017;-78
2023/02/04 09:16:13;;;;;;;10.93;3.07;;;4.40;99.90;;;;;;5041046;28;20017;-78
2023/02/04 09:18:39;;;;;;;16.33;3.50;;;4.40;99.90;;;;;;5041102;28;20079;-78
2023/02/04 09:21:04;;;;;;;16.60;3.27;;;4.40;99.90;;;;;;5042356;28;20068;-78
2023/02/04 09:23:30;;;;;;;19.60;3.53;;;4.50;99.90;;;;;;5039381;28;20057;-78
2023/02/04 09:25:56;;;;;;;15.33;3.50;;;4.50;99.90;;;;;;5038390;28;20024;-79
2023/02/04 09:28:21;;;;;;;13.10;3.50;;;4.60;99.90;;;;;;5037255;28;20029;-78
2023/02/04 09:30:47;;;;;;;12.13;2.97;;;4.60;99.90;;;;;;5042059;28;20162;-78
2023/02/04 09:33:15;;;;;;;13.47;3.30;;;4.60;99.90;;;;;;5037409;28;20104;-78
2023/02/04 09:35:40;;;;;;;16.43;3.17;;;4.60;99.90;;;;;;5041981;28;20009;-78
2023/02/04 09:38:06;;;;;;;14.57;3.27;;;4.60;99.90;;;;;;5043121;28;20032;-78
2023/02/04 09:40:40;;;;;;;17.83;2.93;;;4.60;99.90;;;;;;5036417;28;20056;-80
2023/02/04 09:43:06;;;;;;;16.47;3.63;;;4.60;99.90;;;;;;5038597;28;20490;-80
2023/02/04 09:45:34;;;;;;;25.43;3.23;;;4.60;99.90;;;;;;5043462;28;20033;-80
2023/02/04 09:48:03;;;;;;;10.93;3.30;;;4.70;99.90;;;;;;5037065;28;20027;-85
2023/02/04 09:50:32;;;;;;;17.17;4.27;;;4.80;99.90;;;;;;5033358;28;20326;-87
2023/02/04 09:53:05;;;;;;;17.50;3.57;;;4.80;99.90;;;;;;5033393;28;20021;-86
2023/02/04 09:55:40;;;;;;;13.80;3.20;;;4.80;99.90;;;;;;5034044;28;21452;-86
2023/02/04 09:58:40;;;;;;;13.60;2.97;;;4.80;99.90;;;;;;5032515;28;20086;-87
2023/02/04 10:01:22;;;;;;;14.83;4.07;;;4.90;99.90;;;;;;5035460;28;20047;-86
2023/02/04 10:03:55;;;;;;;18.07;3.20;;;5.00;99.90;;;;;;5035987;28;20025;-86
2023/02/04 10:06:22;;;;;;;15.07;3.03;;;5.00;99.90;;;;;;5034578;28;20033;-86
2023/02/04 10:08:51;;;;;;;19.00;3.17;;;5.00;99.90;;;;;;5032632;28;20041;-86
2023/02/04 10:11:21;;;;;;;11.23;2.80;;;5.10;99.90;;;;;;5032810;28;20028;-86
2023/02/04 10:13:52;;;;;;;13.53;2.83;;;5.10;99.90;;;;;;5034174;28;20463;-86
2023/02/04 10:16:32;;;;;;;17.93;3.13;;;5.10;99.90;;;;;;5031622;28;20029;-86
2023/02/04 10:19:11;;;;;;;11.00;2.70;;;5.20;99.90;;;;;;5042953;28;20022;-80
2023/02/04 10:21:39;;;;;;;16.93;3.67;;;5.20;99.90;;;;;;5035586;28;20064;-76
2023/02/04 10:24:27;;;;;;;13.93;2.83;;;5.10;99.90;;;;;;5030140;28;20053;-80
2023/02/04 10:26:53;;;;;;;12.50;2.60;;;5.20;99.90;;;;;;5039907;28;20021;-80
2023/02/04 10:29:28;;;;;;;17.90;3.77;;;5.30;99.90;;;;;;5035374;28;20021;-81
2023/02/04 10:31:53;;;;;;;;;;;5.30;99.90;;;;;;5037837;28;20535;-80
2023/02/04 10:34:22;;;;;;;14.07;2.67;;;5.20;99.90;;;;;;5034842;28;20000;-80
2023/02/04 10:36:56;;;;;;;10.80;2.97;;;5.30;99.90;;;;;;5040782;28;20047;-82
2023/02/04 10:39:41;;;;;;;15.67;3.43;;;5.20;99.90;;;;;;5055560;28;20024;-81
2023/02/04 10:42:23;;;;;;;15.57;6.30;;;5.20;99.90;;;;;;5039070;28;20399;-81
2023/02/04 10:44:49;;;;;;;9.67;1.90;;;5.10;99.90;;;;;;5048716;28;20036;-80
2023/02/04 10:47:20;;;;;;;9.17;2.60;;;5.10;99.90;;;;;;5044103;28;20017;-81
2023/02/04 10:50:04;;;;;;;9.37;2.30;;;5.10;99.90;;;;;;5045215;28;20071;-81
2023/02/04 10:52:38;;;;;;;13.33;3.33;;;5.10;99.90;;;;;;5013696;28;20018;-82
2023/02/04 10:55:07;;;;;;;6.53;1.73;;;5.10;99.90;;;;;;5054456;28;20099;-81
2023/02/04 10:57:36;;;;;;;6.53;2.17;;;5.10;99.90;;;;;;5042205;28;20528;-82
2023/02/04 11:00:05;;;;;;;7.47;2.20;;;5.10;99.90;;;;;;5038835;28;20029;-80
2023/02/04 11:02:58;;;;;;;9.03;3.03;;;5.10;99.90;;;;;;5026492;28;20025;-83
2023/02/04 11:05:30;;;;;;;5.90;1.60;;;5.20;99.90;;;;;;5026843;28;20105;-83
2023/02/04 11:07:58;;;;;;;7.20;2.60;;;5.20;99.90;;;;;;5026952;28;20035;-82
2023/02/04 11:10:32;;;;;;;10.13;2.17;;;5.10;99.90;;;;;;5023696;28;20073;-83
2023/02/04 11:12:57;;;;;;;14.43;2.20;;;5.10;99.90;;;;;;5025051;28;20036;-83
2023/02/04 11:15:48;;;;;;;9.77;2.60;;;5.10;99.90;;;;;;5024212;28;20025;-83
2023/02/04 11:18:19;;;;;;;13.43;2.40;;;5.00;99.90;;;;;;5025020;28;20032;-83
2023/02/04 11:20:48;;;;;;;9.87;2.50;;;4.90;99.90;;;;;;5025064;28;20112;-83
2023/02/04 11:23:33;;;;;;;7.53;1.90;;;4.80;99.90;;;;;;5025084;28;20840;-83
2023/02/04 11:26:15;;;;;;;6.60;2.10;;;4.80;99.90;;;;;;5024901;28;20068;-84
2023/02/04 11:29:33;;;;;;;8.90;2.47;;;4.70;99.90;;;;;;5024122;28;20493;-84
2023/02/04 11:32:32;;;;;;;10.90;2.10;;;4.70;99.90;;;;;;5022504;28;20052;-83
2023/02/04 11:35:24;;;;;;;4.73;1.97;;;4.70;99.90;;;;;;5022251;28;20144;-84
2023/02/04 11:37:50;;;;;;;5.63;1.70;;;4.70;99.90;;;;;;5023120;28;20037;-84
2023/02/04 11:40:42;;;;;;;3.90;1.50;;;4.70;99.90;;;;;;5023862;28;20046;-79
2023/02/04 11:43:14;;;;;;;4.33;1.50;;;4.70;99.90;;;;;;5022379;28;20041;-80
2023/02/04 11:45:43;;;;;;;3.70;1.60;;;4.70;99.90;;;;;;5021860;28;20029;-80
2023/02/04 11:48:20;;;;;;;4.07;1.60;;;4.70;99.90;;;;;;5022476;28;20613;-81
2023/02/04 11:51:02;;;;;;;4.73;1.60;;;4.70;99.90;;;;;;5023630;28;20030;-80
2023/02/04 11:53:31;;;;;;;4.33;1.70;;;4.60;99.90;;;;;;5022737;28;20018;-81
2023/02/04 11:55:57;;;;;;;5.60;1.80;;;4.70;99.90;;;;;;5023219;28;20022;-81
2023/02/04 11:58:24;;;;;;;2.73;1.37;;;4.70;99.90;;;;;;5023171;28;20017;-80
2023/02/04 12:00:53;;;;;;;6.70;1.63;;;4.80;99.90;;;;;;5022634;28;20037;-81
2023/02/04 12:03:28;;;;;;;4.47;1.40;;;4.80;99.90;;;;;;5021971;28;20455;-81
2023/02/04 12:05:55;;;;;;;5.35;1.70;;;4.90;99.90;;;;;;5022129;28;20108;-81
2023/02/04 12:08:20;;;;;;;3.73;1.83;;;4.90;99.90;;;;;;5020731;28;21527;-81
2023/02/04 12:11:01;;;;;;;4.33;1.40;;;5.00;99.90;;;;;;5022489;28;20036;-81
2023/02/04 12:13:30;;;;;;;6.87;1.80;;;4.90;99.90;;;;;;5023237;28;20097;-81
2023/02/04 12:16:04;;;;;;;4.60;1.50;;;4.90;99.90;;;;;;5022896;28;20079;-81
2023/02/04 12:18:31;;;;;;;4.87;1.43;;;5.00;99.90;;;;;;5022553;28;20359;-81
2023/02/04 12:21:04;;;;;;;4.50;1.40;;;5.00;99.90;;;;;;5022630;28;20021;-81
2023/02/04 12:23:29;;;;;;;6.53;1.90;;;4.90;99.90;;;;;;5038258;28;20474;-81
2023/02/04 12:26:00;;;;;;;4.20;1.70;;;4.90;99.90;;;;;;5023026;28;20072;-81
2023/02/04 12:28:33;;;;;;;5.07;1.67;;;4.80;99.90;;;;;;5021775;28;20051;-81
2023/02/04 12:31:01;;;;;;;2.63;1.37;;;4.70;99.90;;;;;;5022682;28;20021;-81
2023/02/04 12:33:30;;;;;;;4.30;2.00;;;4.70;99.90;;;;;;5023111;28;20080;-81
2023/02/04 12:36:03;;;;;;;3.63;1.70;;;4.70;99.90;;;;;;5023129;28;20056;-81
2023/02/04 12:38:31;;;;;;;6.23;1.57;;;4.70;99.90;;;;;;5022889;28;20051;-84
2023/02/04 12:41:12;;;;;;;3.33;1.80;;;4.70;99.90;;;;;;5023398;28;20036;-84
2023/02/04 12:43:50;;;;;;;6.43;1.83;;;4.70;99.90;;;;;;5021854;28;20029;-84
2023/02/04 12:46:23;;;;;;;5.53;1.80;;;4.70;99.90;;;;;;5021889;28;20207;-84
2023/02/04 12:48:52;;;;;;;5.40;2.43;;;4.90;99.90;;;;;;5023008;28;20033;-84
2023/02/04 12:51:20;;;;;;;3.33;1.43;;;4.90;99.90;;;;;;5022481;28;20083;-83
2023/02/04 12:53:52;;;;;;;5.67;3.20;;;5.10;99.90;;;;;;5041651;28;20453;-83
2023/02/04 12:56:22;;;;;;;3.73;1.60;;;5.20;99.90;;;;;;5040580;28;20067;-83